DAL100 KAUS-KCMH
Flight info
| Callsign | DAL100 |
|---|---|
| Flight time | 2h 5m |
| Altitude | 35000 |
| Route | ELOEL3 KLNGR CVE GRAZN ECIGE ARG PXV JUDDI JAKTZ2 |
| Aircraft | B722/M-SDFGRWY/S |
Departure
| Time | 2026-04-30 01:30 |
|---|---|
| Airport | Austin Bergstrom International Airport (KAUS) |
Arrival
| Time | 2026-04-30 03:36 |
|---|---|
| Airport | John Glenn Columbus International Airport (KCMH) |
| Time | Latitude | Longitude | Altitude | Speed | Heading |
|---|---|---|---|---|---|
| 2026-04-30 00:50 | 30.20165 | -97.66903 | 517 ft | 0 kts | 22° |
| 2026-04-30 01:11 | 30.20163 | -97.66903 | 517 ft | 1 kts | 22° |
| 2026-04-30 01:12 | 30.20154 | -97.66908 | 517 ft | 1 kts | 22° |
| 2026-04-30 01:12 | 30.20143 | -97.66913 | 517 ft | 3 kts | 22° |
| 2026-04-30 01:12 | 30.20126 | -97.66923 | 517 ft | 3 kts | 36° |
| 2026-04-30 01:12 | 30.20118 | -97.66940 | 516 ft | 0 kts | 96° |
| 2026-04-30 01:20 | 30.20118 | -97.66939 | 516 ft | 1 kts | 96° |
| 2026-04-30 01:20 | 30.20103 | -97.66905 | 516 ft | 8 kts | 122° |
| 2026-04-30 01:20 | 30.20078 | -97.66838 | 515 ft | 10 kts | 107° |
| 2026-04-30 01:21 | 30.20063 | -97.66754 | 514 ft | 10 kts | 96° |
| 2026-04-30 01:21 | 30.20022 | -97.66694 | 513 ft | 11 kts | 168° |
| 2026-04-30 01:21 | 30.19935 | -97.66679 | 511 ft | 12 kts | 150° |
| 2026-04-30 01:21 | 30.19908 | -97.66585 | 510 ft | 14 kts | 90° |
| 2026-04-30 01:22 | 30.19911 | -97.66465 | 508 ft | 15 kts | 88° |
| 2026-04-30 01:22 | 30.19913 | -97.66345 | 504 ft | 13 kts | 88° |
| 2026-04-30 01:22 | 30.19916 | -97.66220 | 491 ft | 18 kts | 88° |
| 2026-04-30 01:22 | 30.19919 | -97.66097 | 486 ft | 15 kts | 88° |
| 2026-04-30 01:23 | 30.19920 | -97.66002 | 482 ft | 13 kts | 89° |
| 2026-04-30 01:23 | 30.19900 | -97.65917 | 482 ft | 10 kts | 147° |
| 2026-04-30 01:23 | 30.19830 | -97.65903 | 486 ft | 11 kts | 178° |
| 2026-04-30 01:23 | 30.19757 | -97.65901 | 488 ft | 11 kts | 179° |
| 2026-04-30 01:24 | 30.19673 | -97.65898 | 492 ft | 13 kts | 179° |
| 2026-04-30 01:24 | 30.19614 | -97.65897 | 491 ft | 13 kts | 179° |
| 2026-04-30 01:24 | 30.19529 | -97.65894 | 499 ft | 14 kts | 178° |
| 2026-04-30 01:24 | 30.19434 | -97.65892 | 504 ft | 13 kts | 179° |
| 2026-04-30 01:25 | 30.19306 | -97.65889 | 509 ft | 14 kts | 179° |
| 2026-04-30 01:25 | 30.19241 | -97.65887 | 511 ft | 14 kts | 179° |
| 2026-04-30 01:25 | 30.19144 | -97.65885 | 513 ft | 14 kts | 179° |
| 2026-04-30 01:25 | 30.19048 | -97.65882 | 515 ft | 14 kts | 179° |
| 2026-04-30 01:26 | 30.18944 | -97.65879 | 518 ft | 16 kts | 179° |
| 2026-04-30 01:26 | 30.18828 | -97.65876 | 518 ft | 17 kts | 179° |
| 2026-04-30 01:26 | 30.18701 | -97.65873 | 518 ft | 19 kts | 179° |
| 2026-04-30 01:26 | 30.18565 | -97.65869 | 519 ft | 20 kts | 179° |
| 2026-04-30 01:27 | 30.18425 | -97.65865 | 520 ft | 20 kts | 179° |
| 2026-04-30 01:27 | 30.18290 | -97.65862 | 522 ft | 18 kts | 179° |
| 2026-04-30 01:27 | 30.18200 | -97.65860 | 525 ft | 13 kts | 179° |
| 2026-04-30 01:27 | 30.18109 | -97.65857 | 528 ft | 13 kts | 179° |
| 2026-04-30 01:28 | 30.18025 | -97.65856 | 531 ft | 11 kts | 178° |
| 2026-04-30 01:28 | 30.17967 | -97.65854 | 533 ft | 6 kts | 179° |
| 2026-04-30 01:28 | 30.17937 | -97.65850 | 534 ft | 3 kts | 151° |
| 2026-04-30 01:28 | 30.17932 | -97.65845 | 535 ft | 0 kts | 134° |
| 2026-04-30 01:29 | 30.17926 | -97.65835 | 535 ft | 2 kts | 119° |
| 2026-04-30 01:29 | 30.17918 | -97.65789 | 537 ft | 8 kts | 92° |
| 2026-04-30 01:29 | 30.17925 | -97.65737 | 537 ft | 5 kts | 41° |
| 2026-04-30 01:30 | 30.17996 | -97.65727 | 532 ft | 29 kts | 0° |
| 2026-04-30 01:30 | 30.18515 | -97.65742 | 518 ft | 119 kts | 359° |
| 2026-04-30 01:30 | 30.19530 | -97.65772 | 780 ft | 166 kts | 359° |
| 2026-04-30 01:30 | 30.20782 | -97.65798 | 1449 ft | 189 kts | 0° |
| 2026-04-30 01:31 | 30.22154 | -97.65811 | 2097 ft | 207 kts | 1° |
| 2026-04-30 01:31 | 30.23648 | -97.65871 | 2398 ft | 226 kts | 358° |
| 2026-04-30 01:31 | 30.25294 | -97.65910 | 2649 ft | 239 kts | 0° |
| 2026-04-30 01:31 | 30.27015 | -97.65919 | 3164 ft | 254 kts | 360° |
| 2026-04-30 01:32 | 30.28832 | -97.65914 | 3713 ft | 263 kts | 360° |
| 2026-04-30 01:32 | 30.30661 | -97.65891 | 4268 ft | 266 kts | 0° |
| 2026-04-30 01:32 | 30.32522 | -97.65940 | 4851 ft | 266 kts | 351° |
| 2026-04-30 01:32 | 30.34334 | -97.66326 | 5421 ft | 262 kts | 345° |
| 2026-04-30 01:33 | 30.36121 | -97.66743 | 5915 ft | 264 kts | 346° |
| 2026-04-30 01:33 | 30.37893 | -97.67240 | 5903 ft | 261 kts | 342° |
| 2026-04-30 01:33 | 30.39623 | -97.67794 | 6176 ft | 256 kts | 342° |
| 2026-04-30 01:33 | 30.41328 | -97.68334 | 6758 ft | 253 kts | 342° |
| 2026-04-30 01:34 | 30.43017 | -97.68867 | 7590 ft | 251 kts | 342° |
| 2026-04-30 01:34 | 30.44700 | -97.69394 | 8661 ft | 249 kts | 342° |
| 2026-04-30 01:34 | 30.46372 | -97.69915 | 9777 ft | 248 kts | 341° |
| 2026-04-30 01:34 | 30.48010 | -97.70410 | 10797 ft | 245 kts | 342° |
| 2026-04-30 01:35 | 30.49675 | -97.70868 | 11846 ft | 241 kts | 341° |
| 2026-04-30 01:35 | 30.51275 | -97.71257 | 12893 ft | 235 kts | 341° |
| 2026-04-30 01:35 | 30.52858 | -97.71593 | 13967 ft | 227 kts | 342° |
| 2026-04-30 01:35 | 30.54382 | -97.71876 | 14915 ft | 214 kts | 337° |
| 2026-04-30 01:36 | 30.55756 | -97.72290 | 15841 ft | 196 kts | 333° |
| 2026-04-30 01:36 | 30.57136 | -97.72724 | 16107 ft | 220 kts | 332° |
| 2026-04-30 01:36 | 30.58650 | -97.73208 | 16633 ft | 223 kts | 333° |
| 2026-04-30 01:36 | 30.60211 | -97.73672 | 17016 ft | 242 kts | 334° |
| 2026-04-30 01:37 | 30.61950 | -97.74222 | 16980 ft | 275 kts | 333° |
| 2026-04-30 01:37 | 30.63836 | -97.74864 | 17393 ft | 289 kts | 333° |
| 2026-04-30 01:37 | 30.65788 | -97.75544 | 17809 ft | 294 kts | 333° |
| 2026-04-30 01:37 | 30.67768 | -97.76231 | 18163 ft | 298 kts | 333° |
| 2026-04-30 01:38 | 30.69763 | -97.76911 | 18453 ft | 300 kts | 333° |
| 2026-04-30 01:38 | 30.71692 | -97.77681 | 18722 ft | 295 kts | 328° |
| 2026-04-30 01:38 | 30.73608 | -97.78535 | 19032 ft | 292 kts | 328° |
| 2026-04-30 01:38 | 30.75540 | -97.79399 | 19408 ft | 304 kts | 328° |
| 2026-04-30 01:39 | 30.77548 | -97.80320 | 19821 ft | 316 kts | 328° |
| 2026-04-30 01:39 | 30.79628 | -97.81290 | 20304 ft | 326 kts | 328° |
| 2026-04-30 01:39 | 30.81759 | -97.82298 | 20788 ft | 335 kts | 328° |
| 2026-04-30 01:39 | 30.83935 | -97.83337 | 21281 ft | 340 kts | 328° |
| 2026-04-30 01:40 | 30.86111 | -97.84418 | 21740 ft | 337 kts | 322° |
| 2026-04-30 01:40 | 30.87843 | -97.86112 | 22219 ft | 319 kts | 300° |
| 2026-04-30 01:40 | 30.88948 | -97.88328 | 22749 ft | 316 kts | 291° |
| 2026-04-30 01:40 | 30.90107 | -97.90527 | 23236 ft | 328 kts | 306° |
| 2026-04-30 01:41 | 30.91903 | -97.92244 | 23733 ft | 345 kts | 322° |
| 2026-04-30 01:41 | 30.94102 | -97.93463 | 24212 ft | 354 kts | 328° |
| 2026-04-30 01:41 | 30.96461 | -97.94401 | 24657 ft | 363 kts | 334° |
| 2026-04-30 01:41 | 30.98919 | -97.95162 | 25094 ft | 365 kts | 335° |
| 2026-04-30 01:42 | 31.01350 | -97.95997 | 25557 ft | 362 kts | 331° |
| 2026-04-30 01:42 | 31.03699 | -97.96932 | 26008 ft | 363 kts | 330° |
| 2026-04-30 01:42 | 31.06114 | -97.97874 | 26455 ft | 370 kts | 332° |
| 2026-04-30 01:42 | 31.08597 | -97.98771 | 26923 ft | 376 kts | 332° |
| 2026-04-30 01:43 | 31.11106 | -97.99682 | 27398 ft | 380 kts | 332° |
| 2026-04-30 01:43 | 31.13634 | -98.00633 | 27879 ft | 383 kts | 332° |
| 2026-04-30 01:43 | 31.16182 | -98.01590 | 28367 ft | 387 kts | 332° |
| 2026-04-30 01:43 | 31.18790 | -98.02487 | 28862 ft | 397 kts | 338° |
| 2026-04-30 01:44 | 31.21620 | -98.02729 | 29358 ft | 420 kts | 352° |
| 2026-04-30 01:44 | 31.24566 | -98.02106 | 29886 ft | 444 kts | 8° |
| 2026-04-30 01:44 | 31.27461 | -98.00678 | 30423 ft | 457 kts | 16° |
| 2026-04-30 01:44 | 31.30263 | -97.98854 | 30889 ft | 465 kts | 21° |
| 2026-04-30 01:45 | 31.32993 | -97.96838 | 31347 ft | 469 kts | 22° |
| 2026-04-30 01:45 | 31.35760 | -97.94811 | 31809 ft | 467 kts | 20° |
| 2026-04-30 01:45 | 31.38598 | -97.92984 | 32299 ft | 464 kts | 17° |
| 2026-04-30 01:45 | 31.41452 | -97.91195 | 32778 ft | 467 kts | 19° |
| 2026-04-30 01:46 | 31.44270 | -97.89278 | 33266 ft | 470 kts | 20° |
| 2026-04-30 01:46 | 31.47081 | -97.87313 | 33757 ft | 470 kts | 20° |
| 2026-04-30 01:46 | 31.49920 | -97.85416 | 34217 ft | 469 kts | 19° |
| 2026-04-30 01:46 | 31.52777 | -97.83548 | 34653 ft | 470 kts | 19° |
| 2026-04-30 01:47 | 31.55617 | -97.81640 | 35012 ft | 474 kts | 19° |
| 2026-04-30 01:47 | 31.58508 | -97.79678 | 34998 ft | 486 kts | 19° |
| 2026-04-30 01:47 | 31.61478 | -97.77681 | 35005 ft | 498 kts | 19° |
| 2026-04-30 01:47 | 31.64522 | -97.75640 | 34989 ft | 509 kts | 20° |
| 2026-04-30 01:48 | 31.70713 | -97.71446 | 34974 ft | 514 kts | 20° |
| 2026-04-30 01:48 | 31.76912 | -97.67269 | 34971 ft | 514 kts | 20° |
| 2026-04-30 01:49 | 31.83072 | -97.63098 | 34972 ft | 513 kts | 20° |
| 2026-04-30 01:49 | 31.89275 | -97.58902 | 34965 ft | 515 kts | 20° |
| 2026-04-30 01:50 | 31.95461 | -97.54698 | 34960 ft | 512 kts | 20° |
| 2026-04-30 01:50 | 32.01645 | -97.50503 | 34955 ft | 513 kts | 20° |
| 2026-04-30 01:51 | 32.07821 | -97.46295 | 34967 ft | 513 kts | 20° |
| 2026-04-30 01:51 | 32.13997 | -97.42088 | 35004 ft | 513 kts | 20° |
| 2026-04-30 01:52 | 32.20168 | -97.37872 | 34990 ft | 515 kts | 20° |
| 2026-04-30 01:52 | 32.26353 | -97.33645 | 34991 ft | 515 kts | 20° |
| 2026-04-30 01:53 | 32.32558 | -97.29394 | 34985 ft | 515 kts | 20° |
| 2026-04-30 01:53 | 32.38770 | -97.25134 | 34968 ft | 515 kts | 20° |
| 2026-04-30 01:54 | 32.44977 | -97.20869 | 35012 ft | 517 kts | 20° |
| 2026-04-30 01:54 | 32.51201 | -97.16584 | 35015 ft | 517 kts | 20° |
| 2026-04-30 01:55 | 32.57380 | -97.12324 | 35004 ft | 517 kts | 20° |
| 2026-04-30 01:55 | 32.63595 | -97.08035 | 35004 ft | 517 kts | 20° |
| 2026-04-30 01:56 | 32.69816 | -97.03731 | 35069 ft | 517 kts | 20° |
| 2026-04-30 01:56 | 32.76056 | -96.99410 | 35021 ft | 519 kts | 20° |
| 2026-04-30 01:57 | 32.82287 | -96.95086 | 35013 ft | 519 kts | 20° |
| 2026-04-30 01:57 | 32.88339 | -96.90275 | 35003 ft | 538 kts | 33° |
| 2026-04-30 01:58 | 32.90899 | -96.86954 | 35012 ft | 552 kts | 44° |
| 2026-04-30 01:58 | 32.93171 | -96.83237 | 35026 ft | 558 kts | 49° |
| 2026-04-30 01:58 | 32.97264 | -96.75338 | 35024 ft | 561 kts | 51° |
| 2026-04-30 01:59 | 33.03738 | -96.63839 | 35018 ft | 561 kts | 50° |
| 2026-04-30 02:00 | 33.07921 | -96.55965 | 35012 ft | 560 kts | 49° |
| 2026-04-30 02:00 | 33.12251 | -96.48235 | 35023 ft | 561 kts | 50° |
| 2026-04-30 02:01 | 33.16442 | -96.40426 | 35013 ft | 560 kts | 49° |
| 2026-04-30 02:01 | 33.20729 | -96.32651 | 35009 ft | 560 kts | 50° |
| 2026-04-30 02:02 | 33.24954 | -96.24816 | 35010 ft | 561 kts | 50° |
| 2026-04-30 02:02 | 33.29215 | -96.17006 | 35008 ft | 561 kts | 50° |
| 2026-04-30 02:03 | 33.33446 | -96.09161 | 35012 ft | 561 kts | 50° |
| 2026-04-30 02:03 | 33.37692 | -96.01321 | 35010 ft | 561 kts | 50° |
| 2026-04-30 02:04 | 33.41898 | -95.93505 | 35005 ft | 561 kts | 50° |
| 2026-04-30 02:04 | 33.46127 | -95.85651 | 35006 ft | 561 kts | 50° |
| 2026-04-30 02:05 | 33.50355 | -95.77768 | 35003 ft | 561 kts | 50° |
| 2026-04-30 02:05 | 33.54576 | -95.69891 | 35010 ft | 561 kts | 50° |
| 2026-04-30 02:06 | 33.58794 | -95.62001 | 35013 ft | 563 kts | 50° |
| 2026-04-30 02:06 | 33.63020 | -95.54072 | 35023 ft | 563 kts | 50° |
| 2026-04-30 02:07 | 33.67220 | -95.46181 | 35020 ft | 564 kts | 50° |
| 2026-04-30 02:07 | 33.71441 | -95.38229 | 35019 ft | 564 kts | 50° |
| 2026-04-30 02:08 | 33.75658 | -95.30272 | 34997 ft | 566 kts | 50° |
| 2026-04-30 02:08 | 33.79858 | -95.22323 | 35004 ft | 566 kts | 50° |
| 2026-04-30 02:09 | 33.84081 | -95.14322 | 34987 ft | 566 kts | 50° |
| 2026-04-30 02:09 | 33.88351 | -95.06216 | 34984 ft | 577 kts | 50° |
| 2026-04-30 02:10 | 33.92630 | -94.98051 | 34978 ft | 577 kts | 50° |
| 2026-04-30 02:10 | 33.96904 | -94.89902 | 34980 ft | 574 kts | 50° |
| 2026-04-30 02:11 | 34.01163 | -94.81753 | 34974 ft | 575 kts | 50° |
| 2026-04-30 02:11 | 34.05416 | -94.73598 | 34974 ft | 575 kts | 50° |
| 2026-04-30 02:12 | 34.09666 | -94.65434 | 34986 ft | 575 kts | 50° |
| 2026-04-30 02:12 | 34.13888 | -94.57298 | 34999 ft | 580 kts | 50° |
| 2026-04-30 02:13 | 34.18196 | -94.48988 | 34991 ft | 584 kts | 51° |
| 2026-04-30 02:13 | 34.21799 | -94.42008 | 34990 ft | 584 kts | 51° |
| 2026-04-30 02:14 | 34.26089 | -94.33749 | 34989 ft | 583 kts | 50° |
| 2026-04-30 02:14 | 34.30639 | -94.25669 | 34984 ft | 580 kts | 47° |
| 2026-04-30 02:15 | 34.35105 | -94.17503 | 34974 ft | 580 kts | 50° |
| 2026-04-30 02:15 | 34.39585 | -94.09399 | 34982 ft | 577 kts | 48° |
| 2026-04-30 02:16 | 34.44043 | -94.01287 | 34983 ft | 585 kts | 49° |
| 2026-04-30 02:16 | 34.48531 | -93.93077 | 35002 ft | 584 kts | 48° |
| 2026-04-30 02:17 | 34.53041 | -93.84857 | 34999 ft | 585 kts | 49° |
| 2026-04-30 02:17 | 34.57520 | -93.76625 | 34997 ft | 584 kts | 49° |
| 2026-04-30 02:18 | 34.61979 | -93.68454 | 34997 ft | 584 kts | 49° |
| 2026-04-30 02:18 | 34.66447 | -93.60214 | 34997 ft | 583 kts | 49° |
| 2026-04-30 02:19 | 34.70918 | -93.51973 | 35005 ft | 582 kts | 49° |
| 2026-04-30 02:19 | 34.75369 | -93.43732 | 35005 ft | 582 kts | 49° |
| 2026-04-30 02:20 | 34.79815 | -93.35496 | 35007 ft | 582 kts | 49° |
| 2026-04-30 02:20 | 34.84227 | -93.27291 | 35007 ft | 582 kts | 49° |
| 2026-04-30 02:21 | 34.88669 | -93.19024 | 35014 ft | 583 kts | 50° |
| 2026-04-30 02:21 | 34.93105 | -93.10736 | 35018 ft | 583 kts | 50° |
| 2026-04-30 02:22 | 34.97533 | -93.02455 | 35011 ft | 583 kts | 50° |
| 2026-04-30 02:22 | 35.01958 | -92.94151 | 35016 ft | 584 kts | 50° |
| 2026-04-30 02:23 | 35.06355 | -92.85886 | 35017 ft | 584 kts | 50° |
| 2026-04-30 02:23 | 35.10768 | -92.77566 | 35041 ft | 583 kts | 50° |
| 2026-04-30 02:24 | 35.15184 | -92.69225 | 35047 ft | 584 kts | 50° |
| 2026-04-30 02:24 | 35.19595 | -92.60873 | 35025 ft | 584 kts | 50° |
| 2026-04-30 02:25 | 35.23977 | -92.52556 | 35030 ft | 586 kts | 50° |
| 2026-04-30 02:25 | 35.28392 | -92.44152 | 35045 ft | 586 kts | 50° |
| 2026-04-30 02:26 | 35.32800 | -92.35751 | 35060 ft | 586 kts | 50° |
| 2026-04-30 02:26 | 35.37210 | -92.27313 | 35065 ft | 588 kts | 50° |
| 2026-04-30 02:27 | 35.41588 | -92.18928 | 35051 ft | 588 kts | 50° |
| 2026-04-30 02:27 | 35.45989 | -92.10468 | 35054 ft | 588 kts | 50° |
| 2026-04-30 02:28 | 35.50393 | -92.01993 | 35049 ft | 589 kts | 50° |
| 2026-04-30 02:28 | 35.54794 | -91.93487 | 35056 ft | 590 kts | 50° |
| 2026-04-30 02:29 | 35.59325 | -91.85120 | 35055 ft | 585 kts | 46° |
| 2026-04-30 02:29 | 35.64199 | -91.77132 | 35061 ft | 586 kts | 47° |
| 2026-04-30 02:30 | 35.68794 | -91.68905 | 35064 ft | 586 kts | 47° |
| 2026-04-30 02:30 | 35.73601 | -91.60814 | 35067 ft | 585 kts | 46° |
| 2026-04-30 02:31 | 35.78287 | -91.52544 | 35073 ft | 589 kts | 47° |
| 2026-04-30 02:31 | 35.83067 | -91.44340 | 35068 ft | 589 kts | 46° |
| 2026-04-30 02:32 | 35.87784 | -91.36061 | 35062 ft | 590 kts | 47° |
| 2026-04-30 02:32 | 35.92500 | -91.27873 | 35064 ft | 589 kts | 46° |
| 2026-04-30 02:33 | 35.97214 | -91.19599 | 35066 ft | 590 kts | 47° |
| 2026-04-30 02:33 | 36.01952 | -91.11310 | 35060 ft | 590 kts | 47° |
| 2026-04-30 02:34 | 36.06670 | -91.02999 | 35061 ft | 590 kts | 47° |
| 2026-04-30 02:34 | 36.11393 | -90.94700 | 35061 ft | 590 kts | 47° |
| 2026-04-30 02:35 | 36.16258 | -90.86554 | 35069 ft | 587 kts | 44° |
| 2026-04-30 02:35 | 36.21120 | -90.78398 | 35067 ft | 589 kts | 46° |
| 2026-04-30 02:36 | 36.25962 | -90.70209 | 35078 ft | 590 kts | 45° |
| 2026-04-30 02:36 | 36.30836 | -90.62006 | 35057 ft | 592 kts | 46° |
| 2026-04-30 02:37 | 36.35654 | -90.53819 | 35055 ft | 591 kts | 45° |
| 2026-04-30 02:37 | 36.40521 | -90.45581 | 35053 ft | 592 kts | 46° |
| 2026-04-30 02:38 | 36.45367 | -90.37318 | 35045 ft | 591 kts | 45° |
| 2026-04-30 02:38 | 36.50220 | -90.29051 | 35128 ft | 592 kts | 46° |
| 2026-04-30 02:39 | 36.55086 | -90.20726 | 35050 ft | 594 kts | 45° |
| 2026-04-30 02:39 | 36.59948 | -90.12394 | 35061 ft | 595 kts | 45° |
| 2026-04-30 02:40 | 36.64810 | -90.04043 | 35066 ft | 595 kts | 45° |
| 2026-04-30 02:40 | 36.69659 | -89.95684 | 35082 ft | 596 kts | 46° |
| 2026-04-30 02:41 | 36.74483 | -89.87359 | 35078 ft | 596 kts | 46° |
| 2026-04-30 02:41 | 36.79328 | -89.78971 | 35074 ft | 596 kts | 46° |
| 2026-04-30 02:42 | 36.84173 | -89.70562 | 35074 ft | 596 kts | 46° |
| 2026-04-30 02:42 | 36.89015 | -89.62141 | 35083 ft | 596 kts | 46° |
| 2026-04-30 02:43 | 36.93844 | -89.53719 | 35086 ft | 596 kts | 46° |
| 2026-04-30 02:43 | 36.98669 | -89.45282 | 35079 ft | 596 kts | 46° |
| 2026-04-30 02:44 | 37.03477 | -89.36853 | 35099 ft | 594 kts | 46° |
| 2026-04-30 02:44 | 37.08243 | -89.28482 | 35103 ft | 594 kts | 46° |
| 2026-04-30 02:45 | 37.13064 | -89.19989 | 35103 ft | 595 kts | 46° |
| 2026-04-30 02:45 | 37.17854 | -89.11528 | 35095 ft | 595 kts | 46° |
| 2026-04-30 02:46 | 37.22635 | -89.03066 | 35053 ft | 595 kts | 46° |
| 2026-04-30 02:46 | 37.27357 | -88.94676 | 35048 ft | 589 kts | 47° |
| 2026-04-30 02:47 | 37.32086 | -88.86273 | 35049 ft | 589 kts | 47° |
| 2026-04-30 02:47 | 37.36825 | -88.77814 | 35051 ft | 592 kts | 47° |
| 2026-04-30 02:48 | 37.41569 | -88.69329 | 35055 ft | 592 kts | 47° |
| 2026-04-30 02:48 | 37.46273 | -88.60898 | 35059 ft | 592 kts | 47° |
| 2026-04-30 02:49 | 37.50964 | -88.52460 | 35064 ft | 586 kts | 47° |
| 2026-04-30 02:49 | 37.55640 | -88.44043 | 35075 ft | 587 kts | 47° |
| 2026-04-30 02:50 | 37.60314 | -88.35591 | 35079 ft | 588 kts | 47° |
| 2026-04-30 02:50 | 37.64986 | -88.27132 | 35070 ft | 587 kts | 47° |
| 2026-04-30 02:51 | 37.69650 | -88.18661 | 35067 ft | 588 kts | 47° |
| 2026-04-30 02:51 | 37.74300 | -88.10194 | 35082 ft | 585 kts | 48° |
| 2026-04-30 02:52 | 37.78930 | -88.01747 | 35079 ft | 585 kts | 48° |
| 2026-04-30 02:52 | 37.83534 | -87.93322 | 35073 ft | 585 kts | 48° |
| 2026-04-30 02:53 | 37.88156 | -87.84842 | 35077 ft | 585 kts | 48° |
| 2026-04-30 02:53 | 37.92779 | -87.76369 | 35077 ft | 584 kts | 47° |
| 2026-04-30 02:54 | 37.97785 | -87.68374 | 35078 ft | 574 kts | 40° |
| 2026-04-30 02:54 | 38.02941 | -87.60577 | 35086 ft | 580 kts | 45° |
| 2026-04-30 02:55 | 38.07910 | -87.52532 | 35085 ft | 577 kts | 42° |
| 2026-04-30 02:55 | 38.13068 | -87.44744 | 35084 ft | 575 kts | 41° |
| 2026-04-30 02:56 | 38.18353 | -87.37141 | 35070 ft | 576 kts | 43° |
| 2026-04-30 02:56 | 38.23192 | -87.29016 | 35066 ft | 579 kts | 45° |
| 2026-04-30 02:57 | 38.28269 | -87.21139 | 35059 ft | 575 kts | 42° |
| 2026-04-30 02:57 | 38.33226 | -87.13093 | 35065 ft | 578 kts | 45° |
| 2026-04-30 02:58 | 38.38268 | -87.05165 | 35063 ft | 574 kts | 41° |
| 2026-04-30 02:58 | 38.43331 | -86.97263 | 35063 ft | 577 kts | 44° |
| 2026-04-30 02:59 | 38.48252 | -86.89154 | 35066 ft | 577 kts | 45° |
| 2026-04-30 02:59 | 38.53163 | -86.81049 | 35071 ft | 577 kts | 45° |
| 2026-04-30 03:00 | 38.58046 | -86.72981 | 35071 ft | 577 kts | 44° |
| 2026-04-30 03:00 | 38.62956 | -86.64862 | 35070 ft | 576 kts | 45° |
| 2026-04-30 03:01 | 38.67045 | -86.58056 | 35074 ft | 577 kts | 46° |
| 2026-04-30 03:01 | 38.71850 | -86.49821 | 35069 ft | 576 kts | 45° |
| 2026-04-30 03:02 | 38.75950 | -86.40981 | 35074 ft | 593 kts | 64° |
| 2026-04-30 03:02 | 38.78195 | -86.30756 | 35070 ft | 598 kts | 75° |
| 2026-04-30 03:02 | 38.78951 | -86.25567 | 35063 ft | 586 kts | 78° |
| 2026-04-30 03:03 | 38.79573 | -86.20400 | 35021 ft | 588 kts | 79° |
| 2026-04-30 03:03 | 38.82086 | -86.05018 | 35021 ft | 588 kts | 77° |
| 2026-04-30 03:04 | 38.83497 | -85.94833 | 34800 ft | 566 kts | 77° |
| 2026-04-30 03:04 | 38.84228 | -85.89876 | 34591 ft | 565 kts | 77° |
| 2026-04-30 03:04 | 38.84951 | -85.84979 | 34404 ft | 565 kts | 76° |
| 2026-04-30 03:05 | 38.85719 | -85.80037 | 34224 ft | 564 kts | 75° |
| 2026-04-30 03:05 | 38.86516 | -85.75041 | 33914 ft | 563 kts | 76° |
| 2026-04-30 03:05 | 38.87246 | -85.70180 | 33572 ft | 560 kts | 77° |
| 2026-04-30 03:05 | 38.87960 | -85.65273 | 33160 ft | 556 kts | 77° |
| 2026-04-30 03:06 | 38.88692 | -85.60425 | 32733 ft | 551 kts | 76° |
| 2026-04-30 03:06 | 38.89425 | -85.55658 | 32267 ft | 540 kts | 76° |
| 2026-04-30 03:06 | 38.90131 | -85.50945 | 31799 ft | 535 kts | 77° |
| 2026-04-30 03:06 | 38.90819 | -85.46271 | 31342 ft | 531 kts | 77° |
| 2026-04-30 03:07 | 38.91511 | -85.41623 | 30898 ft | 527 kts | 77° |
| 2026-04-30 03:07 | 38.92198 | -85.37038 | 30459 ft | 522 kts | 77° |
| 2026-04-30 03:07 | 38.92875 | -85.32467 | 30007 ft | 519 kts | 77° |
| 2026-04-30 03:07 | 38.93540 | -85.27932 | 29305 ft | 515 kts | 77° |
| 2026-04-30 03:08 | 38.94194 | -85.23485 | 28540 ft | 510 kts | 77° |
| 2026-04-30 03:08 | 38.94849 | -85.19043 | 27795 ft | 504 kts | 77° |
| 2026-04-30 03:08 | 38.95493 | -85.14642 | 27074 ft | 498 kts | 77° |
| 2026-04-30 03:08 | 38.96127 | -85.10296 | 26339 ft | 492 kts | 77° |
| 2026-04-30 03:09 | 38.96752 | -85.05997 | 25626 ft | 486 kts | 77° |
| 2026-04-30 03:09 | 38.97368 | -85.01753 | 24931 ft | 480 kts | 77° |
| 2026-04-30 03:09 | 38.97978 | -84.97557 | 24251 ft | 474 kts | 77° |
| 2026-04-30 03:09 | 38.98571 | -84.93439 | 24022 ft | 464 kts | 77° |
| 2026-04-30 03:10 | 38.99159 | -84.89359 | 24017 ft | 465 kts | 77° |
| 2026-04-30 03:10 | 38.99751 | -84.85260 | 24023 ft | 466 kts | 77° |
| 2026-04-30 03:10 | 39.00339 | -84.81147 | 23982 ft | 466 kts | 77° |
| 2026-04-30 03:10 | 39.00919 | -84.77080 | 24073 ft | 465 kts | 78° |
| 2026-04-30 03:11 | 39.01503 | -84.73006 | 24073 ft | 463 kts | 77° |
| 2026-04-30 03:11 | 39.02394 | -84.69049 | 24060 ft | 458 kts | 63° |
| 2026-04-30 03:11 | 39.03820 | -84.65485 | 24074 ft | 450 kts | 52° |
| 2026-04-30 03:11 | 39.05547 | -84.62150 | 24025 ft | 447 kts | 47° |
| 2026-04-30 03:12 | 39.07426 | -84.58985 | 23827 ft | 443 kts | 44° |
| 2026-04-30 03:12 | 39.09295 | -84.55863 | 23533 ft | 433 kts | 47° |
| 2026-04-30 03:12 | 39.11020 | -84.52713 | 23063 ft | 428 kts | 49° |
| 2026-04-30 03:12 | 39.12713 | -84.49579 | 22593 ft | 422 kts | 47° |
| 2026-04-30 03:13 | 39.14437 | -84.46550 | 22136 ft | 418 kts | 46° |
| 2026-04-30 03:13 | 39.16163 | -84.43544 | 21680 ft | 415 kts | 47° |
| 2026-04-30 03:13 | 39.17839 | -84.40535 | 21252 ft | 412 kts | 48° |
| 2026-04-30 03:13 | 39.19473 | -84.37578 | 20823 ft | 408 kts | 48° |
| 2026-04-30 03:14 | 39.21126 | -84.34630 | 20363 ft | 404 kts | 48° |
| 2026-04-30 03:14 | 39.22772 | -84.31704 | 19974 ft | 402 kts | 48° |
| 2026-04-30 03:14 | 39.24401 | -84.28785 | 19551 ft | 400 kts | 48° |
| 2026-04-30 03:14 | 39.26017 | -84.25877 | 19140 ft | 402 kts | 49° |
| 2026-04-30 03:15 | 39.27722 | -84.22841 | 18771 ft | 421 kts | 49° |
| 2026-04-30 03:15 | 39.29403 | -84.19762 | 18393 ft | 418 kts | 52° |
| 2026-04-30 03:15 | 39.30860 | -84.16528 | 17960 ft | 417 kts | 59° |
| 2026-04-30 03:15 | 39.32078 | -84.13142 | 17559 ft | 414 kts | 63° |
| 2026-04-30 03:16 | 39.33240 | -84.09750 | 17311 ft | 412 kts | 61° |
| 2026-04-30 03:16 | 39.34534 | -84.06454 | 17075 ft | 409 kts | 58° |
| 2026-04-30 03:16 | 39.35862 | -84.03213 | 16988 ft | 408 kts | 59° |
| 2026-04-30 03:16 | 39.37120 | -83.99912 | 16989 ft | 410 kts | 60° |
| 2026-04-30 03:17 | 39.38348 | -83.96586 | 17011 ft | 410 kts | 60° |
| 2026-04-30 03:17 | 39.39616 | -83.93286 | 17005 ft | 408 kts | 59° |
| 2026-04-30 03:17 | 39.40901 | -83.89996 | 17042 ft | 410 kts | 60° |
| 2026-04-30 03:17 | 39.42163 | -83.86684 | 17010 ft | 411 kts | 60° |
| 2026-04-30 03:18 | 39.43418 | -83.83359 | 16832 ft | 411 kts | 60° |
| 2026-04-30 03:18 | 39.44682 | -83.80045 | 16629 ft | 409 kts | 60° |
| 2026-04-30 03:18 | 39.45943 | -83.76750 | 16417 ft | 407 kts | 60° |
| 2026-04-30 03:18 | 39.47189 | -83.73467 | 16215 ft | 406 kts | 60° |
| 2026-04-30 03:19 | 39.48414 | -83.70240 | 16050 ft | 404 kts | 60° |
| 2026-04-30 03:19 | 39.49653 | -83.66979 | 16051 ft | 404 kts | 60° |
| 2026-04-30 03:19 | 39.50892 | -83.63713 | 16048 ft | 404 kts | 60° |
| 2026-04-30 03:19 | 39.52131 | -83.60441 | 16044 ft | 405 kts | 60° |
| 2026-04-30 03:20 | 39.53368 | -83.57166 | 16043 ft | 404 kts | 60° |
| 2026-04-30 03:20 | 39.54604 | -83.53899 | 16042 ft | 404 kts | 60° |
| 2026-04-30 03:20 | 39.55841 | -83.50622 | 16029 ft | 404 kts | 60° |
| 2026-04-30 03:20 | 39.57076 | -83.47342 | 16024 ft | 404 kts | 60° |
| 2026-04-30 03:21 | 39.58342 | -83.44097 | 16010 ft | 402 kts | 55° |
| 2026-04-30 03:21 | 39.60016 | -83.41228 | 15743 ft | 394 kts | 40° |
| 2026-04-30 03:21 | 39.62023 | -83.38869 | 15298 ft | 386 kts | 33° |
| 2026-04-30 03:21 | 39.64126 | -83.36775 | 14762 ft | 376 kts | 29° |
| 2026-04-30 03:22 | 39.66184 | -83.34823 | 14263 ft | 358 kts | 30° |
| 2026-04-30 03:22 | 39.68112 | -83.32858 | 13788 ft | 348 kts | 32° |
| 2026-04-30 03:22 | 39.69957 | -83.30930 | 13298 ft | 342 kts | 32° |
| 2026-04-30 03:22 | 39.71798 | -83.28996 | 12846 ft | 340 kts | 37° |
| 2026-04-30 03:23 | 39.73338 | -83.26645 | 12410 ft | 342 kts | 49° |
| 2026-04-30 03:23 | 39.74652 | -83.24071 | 11943 ft | 341 kts | 55° |
| 2026-04-30 03:23 | 39.75876 | -83.21455 | 11499 ft | 336 kts | 54° |
| 2026-04-30 03:23 | 39.77153 | -83.18939 | 11051 ft | 331 kts | 52° |
| 2026-04-30 03:24 | 39.78451 | -83.16483 | 10618 ft | 327 kts | 52° |
| 2026-04-30 03:24 | 39.79695 | -83.14061 | 10189 ft | 316 kts | 53° |
| 2026-04-30 03:24 | 39.80896 | -83.11724 | 9754 ft | 306 kts | 53° |
| 2026-04-30 03:24 | 39.82080 | -83.09456 | 9336 ft | 301 kts | 52° |
| 2026-04-30 03:25 | 39.83244 | -83.07218 | 8994 ft | 296 kts | 53° |
| 2026-04-30 03:25 | 39.84387 | -83.05003 | 8728 ft | 293 kts | 53° |
| 2026-04-30 03:25 | 39.85503 | -83.02840 | 8477 ft | 290 kts | 53° |
| 2026-04-30 03:25 | 39.86624 | -83.00667 | 8242 ft | 289 kts | 53° |
| 2026-04-30 03:26 | 39.87740 | -82.98501 | 7960 ft | 287 kts | 53° |
| 2026-04-30 03:26 | 39.88851 | -82.96350 | 7607 ft | 286 kts | 53° |
| 2026-04-30 03:26 | 39.89924 | -82.94174 | 7211 ft | 284 kts | 60° |
| 2026-04-30 03:26 | 39.90520 | -82.91723 | 6835 ft | 285 kts | 80° |
| 2026-04-30 03:27 | 39.90599 | -82.89192 | 6447 ft | 275 kts | 91° |
| 2026-04-30 03:27 | 39.90443 | -82.86779 | 6052 ft | 261 kts | 95° |
| 2026-04-30 03:27 | 39.90270 | -82.84491 | 5958 ft | 248 kts | 92° |
| 2026-04-30 03:27 | 39.90167 | -82.82291 | 5968 ft | 242 kts | 91° |
| 2026-04-30 03:28 | 39.90068 | -82.80107 | 5969 ft | 241 kts | 92° |
| 2026-04-30 03:28 | 39.89956 | -82.77926 | 5972 ft | 241 kts | 92° |
| 2026-04-30 03:28 | 39.89846 | -82.75749 | 5971 ft | 241 kts | 92° |
| 2026-04-30 03:28 | 39.89736 | -82.73576 | 5985 ft | 240 kts | 92° |
| 2026-04-30 03:29 | 39.89624 | -82.71390 | 5863 ft | 243 kts | 92° |
| 2026-04-30 03:29 | 39.89512 | -82.69209 | 5666 ft | 238 kts | 92° |
| 2026-04-30 03:29 | 39.89402 | -82.67116 | 5495 ft | 227 kts | 92° |
| 2026-04-30 03:29 | 39.89381 | -82.65073 | 5279 ft | 224 kts | 78° |
| 2026-04-30 03:30 | 39.90043 | -82.63323 | 4902 ft | 209 kts | 39° |
| 2026-04-30 03:30 | 39.91282 | -82.62577 | 4521 ft | 193 kts | 1° |
| 2026-04-30 03:30 | 39.92594 | -82.62552 | 4126 ft | 190 kts | 355° |
| 2026-04-30 03:30 | 39.93902 | -82.62565 | 3660 ft | 187 kts | 355° |
| 2026-04-30 03:31 | 39.95204 | -82.62587 | 3195 ft | 186 kts | 354° |
| 2026-04-30 03:31 | 39.96400 | -82.63080 | 2657 ft | 182 kts | 319° |
| 2026-04-30 03:31 | 39.97070 | -82.64425 | 2599 ft | 178 kts | 293° |
| 2026-04-30 03:31 | 39.97540 | -82.65925 | 2797 ft | 177 kts | 293° |
| 2026-04-30 03:32 | 39.98019 | -82.67419 | 2949 ft | 179 kts | 292° |
| 2026-04-30 03:32 | 39.98479 | -82.68933 | 2907 ft | 179 kts | 291° |
| 2026-04-30 03:32 | 39.98938 | -82.70435 | 2973 ft | 177 kts | 291° |
| 2026-04-30 03:32 | 39.99253 | -82.71990 | 2970 ft | 177 kts | 279° |
| 2026-04-30 03:33 | 39.99344 | -82.73588 | 2989 ft | 177 kts | 275° |
| 2026-04-30 03:33 | 39.99433 | -82.75165 | 2802 ft | 157 kts | 277° |
| 2026-04-30 03:33 | 39.99511 | -82.76445 | 2587 ft | 141 kts | 276° |
| 2026-04-30 03:33 | 39.99578 | -82.77682 | 2403 ft | 131 kts | 276° |
| 2026-04-30 03:34 | 39.99642 | -82.78889 | 2235 ft | 133 kts | 277° |
| 2026-04-30 03:34 | 39.99717 | -82.80067 | 2048 ft | 130 kts | 279° |
| 2026-04-30 03:34 | 39.99772 | -82.81054 | 1894 ft | 127 kts | 277° |
| 2026-04-30 03:34 | 39.99832 | -82.82199 | 1715 ft | 129 kts | 279° |
| 2026-04-30 03:35 | 39.99904 | -82.83392 | 1579 ft | 135 kts | 276° |
| 2026-04-30 03:35 | 39.99964 | -82.84598 | 1379 ft | 132 kts | 276° |
| 2026-04-30 03:35 | 40.00042 | -82.85822 | 1175 ft | 137 kts | 275° |
| 2026-04-30 03:35 | 40.00107 | -82.87036 | 993 ft | 130 kts | 275° |
| 2026-04-30 03:36 | 40.00172 | -82.88155 | 827 ft | 113 kts | 274° |
| 2026-04-30 03:36 | 40.00218 | -82.88980 | 824 ft | 65 kts | 274° |
| 2026-04-30 03:36 | 40.00243 | -82.89403 | 823 ft | 29 kts | 274° |
| 2026-04-30 03:36 | 40.00256 | -82.89631 | 821 ft | 20 kts | 274° |
| 2026-04-30 03:37 | 40.00239 | -82.89744 | 822 ft | 9 kts | 219° |
| 2026-04-30 03:37 | 40.00174 | -82.89732 | 824 ft | 12 kts | 121° |
| 2026-04-30 03:37 | 40.00159 | -82.89610 | 823 ft | 14 kts | 94° |
| 2026-04-30 03:37 | 40.00153 | -82.89488 | 823 ft | 15 kts | 94° |
| 2026-04-30 03:38 | 40.00144 | -82.89343 | 820 ft | 17 kts | 94° |
| 2026-04-30 03:38 | 40.00135 | -82.89179 | 824 ft | 19 kts | 94° |
| 2026-04-30 03:38 | 40.00127 | -82.89042 | 825 ft | 13 kts | 94° |
| 2026-04-30 03:38 | 40.00120 | -82.88912 | 826 ft | 15 kts | 94° |
| 2026-04-30 03:39 | 40.00112 | -82.88769 | 827 ft | 11 kts | 94° |
| 2026-04-30 03:39 | 40.00098 | -82.88663 | 826 ft | 12 kts | 126° |
| 2026-04-30 03:39 | 40.00031 | -82.88689 | 824 ft | 14 kts | 259° |
| 2026-04-30 03:39 | 40.00022 | -82.88789 | 824 ft | 9 kts | 236° |
| 2026-04-30 03:40 | 39.99969 | -82.88792 | 822 ft | 8 kts | 157° |
| 2026-04-30 03:40 | 39.99950 | -82.88781 | 823 ft | 3 kts | 158° |
| 2026-04-30 03:40 | 39.99945 | -82.88779 | 824 ft | 0 kts | 158° |